createdAt,value
2023-03-08T00:01:29.527Z,100.00
2023-03-08T00:06:32.452Z,100.00
2023-03-08T00:11:36.750Z,100.00
2023-03-08T00:16:39.657Z,100.00
2023-03-08T00:21:42.574Z,100.00
2023-03-08T00:26:46.858Z,100.00
2023-03-08T00:31:49.987Z,100.00
2023-03-08T00:36:52.941Z,100.00
2023-03-08T00:41:57.228Z,100.00
2023-03-08T00:47:00.271Z,100.00
2023-03-08T00:52:03.202Z,100.00
2023-03-08T00:57:07.566Z,100.00
2023-03-08T01:02:10.532Z,100.00
2023-03-08T01:07:15.682Z,100.00
2023-03-08T01:12:22.704Z,100.00
2023-03-08T01:17:25.799Z,100.00
2023-03-08T01:22:28.737Z,99.63
2023-03-08T01:27:33.242Z,100.00
2023-03-08T01:32:36.228Z,99.45
2023-03-08T01:37:39.137Z,97.88
2023-03-08T01:42:43.498Z,98.82
2023-03-08T01:47:46.337Z,97.45
2023-03-08T01:52:56.727Z,96.80
2023-03-08T01:58:01.004Z,97.53
2023-03-08T02:03:08.059Z,97.29
2023-03-08T02:08:11.077Z,96.50
2023-03-08T02:13:16.682Z,96.75
2023-03-08T02:18:20.723Z,96.63
2023-03-08T02:23:26.576Z,96.90
2023-03-08T02:28:30.575Z,97.63
2023-03-08T02:33:34.903Z,97.74
2023-03-08T02:38:39.215Z,96.85
2023-03-08T02:43:42.152Z,96.93
2023-03-08T02:48:46.160Z,97.58
2023-03-08T02:53:50.550Z,100.00
2023-03-08T02:58:53.730Z,100.00
2023-03-08T03:03:58.648Z,98.17
2023-03-08T03:09:06.766Z,98.39
2023-03-08T03:14:10.031Z,98.64
2023-03-08T03:19:17.316Z,99.28
2023-03-08T03:24:21.634Z,99.73
2023-03-08T03:29:29.386Z,99.68
2023-03-08T03:34:42.385Z,100.00
2023-03-08T03:39:47.759Z,99.89
2023-03-08T03:44:53.288Z,98.96
2023-03-08T03:49:58.113Z,98.41
2023-03-08T03:55:05.680Z,97.61
2023-03-08T04:00:09.975Z,97.59
2023-03-08T04:05:22.725Z,97.84
2023-03-08T04:10:30.062Z,100.00
2023-03-08T04:15:33.657Z,99.47
2023-03-08T04:20:40.890Z,99.52
2023-03-08T04:25:48.072Z,100.00
2023-03-08T04:30:52.235Z,98.97
2023-03-08T04:35:56.157Z,99.25
2023-03-08T04:41:10.339Z,99.27
2023-03-08T04:46:36.330Z,98.77
2023-03-08T04:51:39.897Z,99.42
2023-03-08T04:56:46.222Z,100.00
2023-03-08T05:01:51.062Z,100.00
2023-03-08T05:06:54.474Z,100.00
2023-03-08T05:12:02.393Z,100.00
2023-03-08T05:17:30.485Z,100.00
2023-03-08T05:22:45.014Z,100.00
2023-03-08T05:27:56.766Z,100.00
2023-03-08T05:32:59.754Z,100.00
2023-03-08T05:38:03.011Z,100.00
2023-03-08T05:43:07.974Z,99.52
2023-03-08T05:48:12.329Z,98.29
2023-03-08T05:53:15.282Z,99.22
2023-03-08T05:58:20.120Z,100.00
2023-03-08T06:03:23.135Z,99.52
2023-03-08T06:08:26.552Z,99.84
2023-03-08T06:13:31.470Z,98.84
2023-03-08T06:18:36.403Z,98.85
2023-03-08T06:23:41.330Z,99.11
2023-03-08T06:28:46.759Z,98.95
2023-03-08T06:33:49.777Z,96.74
2023-03-08T06:38:59.654Z,95.49
2023-03-08T06:44:04.064Z,94.06
2023-03-08T06:49:07.804Z,92.71
2023-03-08T06:54:14.862Z,91.63
2023-03-08T06:59:19.302Z,88.87
2023-03-08T07:04:22.255Z,89.23
2023-03-08T07:09:25.763Z,87.57
2023-03-08T07:14:30.086Z,89.04
2023-03-08T07:19:33.009Z,87.87
2023-03-08T07:24:35.869Z,87.21
2023-03-08T07:29:40.137Z,86.80
2023-03-08T07:34:43.248Z,87.35
2023-03-08T07:39:46.167Z,88.54
2023-03-08T07:44:50.458Z,87.97
2023-03-08T07:49:53.339Z,86.56
2023-03-08T07:54:56.301Z,87.39
2023-03-08T08:00:00.574Z,86.42
2023-03-08T08:05:04.650Z,86.82
2023-03-08T08:10:08.866Z,87.27
2023-03-08T08:15:13.582Z,88.41
2023-03-08T08:20:16.681Z,85.45
2023-03-08T08:25:20.377Z,82.92
2023-03-08T08:30:24.797Z,83.91
2023-03-08T08:35:42.070Z,82.89
2023-03-08T08:40:45.851Z,83.43
2023-03-08T08:45:55.605Z,81.78
2023-03-08T08:50:59.895Z,82.72
2023-03-08T08:56:23.735Z,84.36
2023-03-08T09:01:33.371Z,85.76
2023-03-08T09:06:36.353Z,85.85
2023-03-08T09:11:53.436Z,86.35
2023-03-08T09:16:58.906Z,85.41
2023-03-08T09:22:01.932Z,84.86
2023-03-08T09:27:06.509Z,85.34
2023-03-08T09:32:10.940Z,85.89
2023-03-08T09:37:13.997Z,85.64
2023-03-08T09:42:23.467Z,84.42
2023-03-08T09:47:44.070Z,84.22
2023-03-08T09:52:52.116Z,85.26
2023-03-08T09:57:57.320Z,86.23
2023-03-08T10:03:39.081Z,89.70
2023-03-08T10:08:50.816Z,86.67
2023-03-08T10:13:57.722Z,88.04
2023-03-08T10:19:06.416Z,91.21
2023-03-08T10:24:16.813Z,92.35
2023-03-08T10:29:19.741Z,93.44
2023-03-08T10:34:31.216Z,93.21
2023-03-08T10:39:36.959Z,92.00
2023-03-08T10:44:42.865Z,90.93
2023-03-08T10:49:47.421Z,89.21
2023-03-08T10:55:03.183Z,92.76
2023-03-08T11:00:22.253Z,92.36
2023-03-08T11:05:27.637Z,92.43
2023-03-08T11:10:32.717Z,91.95
2023-03-08T11:15:41.565Z,91.84
2023-03-08T11:20:50.392Z,92.33
2023-03-08T11:26:01.133Z,91.52
2023-03-08T11:31:15.639Z,91.73
2023-03-08T11:36:23.509Z,91.84
2023-03-08T11:41:38.288Z,91.03
2023-03-08T11:46:52.898Z,91.18
2023-03-08T11:52:03.885Z,91.27
2023-03-08T11:57:11.726Z,91.79
2023-03-08T12:02:20.354Z,93.41
2023-03-08T12:07:29.111Z,93.25
2023-03-08T12:12:38.674Z,94.96
2023-03-08T12:17:45.429Z,94.36
2023-03-08T12:22:52.265Z,95.14
2023-03-08T12:28:01.232Z,94.99
2023-03-08T12:33:06.586Z,95.44
2023-03-08T12:38:35.430Z,95.27
2023-03-08T12:43:40.593Z,94.49
2023-03-08T12:48:50.319Z,95.00
2023-03-08T12:54:02.016Z,95.37
2023-03-08T12:59:37.778Z,93.63
2023-03-08T13:04:42.706Z,94.71
2023-03-08T13:09:54.084Z,96.47
2023-03-08T13:15:08.855Z,95.63
2023-03-08T13:20:19.433Z,97.55
2023-03-08T13:25:34.131Z,94.79
2023-03-08T13:30:43.895Z,94.14
2023-03-08T13:35:56.376Z,96.60
2023-03-08T13:41:00.213Z,94.58
2023-03-08T13:46:07.638Z,93.65
2023-03-08T13:51:16.718Z,93.57
2023-03-08T13:56:24.633Z,91.89
2023-03-08T14:01:28.940Z,91.07
2023-03-08T14:06:36.662Z,92.15
2023-03-08T14:11:42.209Z,90.88
2023-03-08T14:16:48.500Z,90.58
2023-03-08T14:21:53.429Z,91.33
2023-03-08T14:27:00.510Z,91.82
2023-03-08T14:32:26.889Z,92.87
2023-03-08T14:37:31.803Z,92.51
2023-03-08T14:42:41.671Z,92.68
2023-03-08T14:47:52.351Z,94.00
2023-03-08T14:52:57.349Z,93.53
2023-03-08T14:58:03.298Z,94.65
2023-03-08T15:03:07.576Z,95.01
2023-03-08T15:08:12.849Z,94.45
2023-03-08T15:13:17.438Z,94.22
2023-03-08T15:18:21.920Z,95.45
2023-03-08T15:23:27.473Z,95.36
2023-03-08T15:28:30.618Z,96.33
2023-03-08T15:33:34.873Z,94.89
2023-03-08T15:38:37.853Z,95.49
2023-03-08T15:43:40.803Z,95.53
2023-03-08T15:48:46.060Z,94.76
2023-03-08T15:53:50.078Z,96.38
2023-03-08T15:58:53.162Z,96.36
2023-03-08T16:03:58.221Z,97.38
2023-03-08T16:09:01.133Z,96.93
2023-03-08T16:14:04.024Z,97.09
2023-03-08T16:19:08.299Z,97.62
2023-03-08T16:24:13.344Z,97.77
2023-03-08T16:29:16.498Z,96.94
2023-03-08T16:34:22.141Z,97.85
2023-03-08T16:39:26.545Z,97.70
2023-03-08T16:44:31.605Z,97.55
2023-03-08T16:49:36.812Z,98.26
2023-03-08T16:54:39.779Z,97.90
2023-03-08T16:59:42.689Z,97.99
2023-03-08T17:04:47.680Z,98.65
2023-03-08T17:09:50.960Z,98.24
2023-03-08T17:14:54.037Z,98.80
2023-03-08T17:19:58.386Z,97.44
2023-03-08T17:25:01.478Z,98.78
2023-03-08T17:30:04.964Z,98.80
2023-03-08T17:35:10.538Z,98.51
2023-03-08T17:40:14.799Z,98.68
2023-03-08T17:45:18.798Z,98.02
2023-03-08T17:50:23.117Z,98.96
2023-03-08T17:55:26.225Z,98.53
2023-03-08T18:00:29.567Z,99.09
2023-03-08T18:05:33.876Z,98.41
2023-03-08T18:10:36.900Z,98.33
2023-03-08T18:15:39.976Z,98.27
2023-03-08T18:20:44.240Z,98.82
2023-03-08T18:25:47.182Z,98.67
2023-03-08T18:30:50.183Z,98.96
2023-03-08T18:36:03.722Z,99.87
2023-03-08T18:41:14.355Z,99.16
2023-03-08T18:46:17.316Z,98.49
2023-03-08T18:51:21.545Z,100.00
2023-03-08T18:56:25.932Z,100.00
2023-03-08T19:01:30.456Z,100.00
2023-03-08T19:06:35.420Z,99.60
2023-03-08T19:11:38.431Z,99.66
2023-03-08T19:16:42.113Z,100.00
2023-03-08T19:21:48.506Z,100.00
2023-03-08T19:26:53.320Z,98.52
2023-03-08T19:31:58.192Z,99.07
2023-03-08T19:37:03.486Z,100.00
2023-03-08T19:42:08.644Z,100.00
2023-03-08T19:47:11.580Z,100.00
2023-03-08T19:52:15.830Z,100.00
2023-03-08T19:57:18.825Z,99.85
2023-03-08T20:02:21.766Z,99.31
2023-03-08T20:07:26.067Z,99.77
2023-03-08T20:12:28.995Z,100.00
2023-03-08T20:17:33.050Z,99.73
2023-03-08T20:22:37.856Z,99.61
2023-03-08T20:27:41.442Z,100.00
2023-03-08T20:32:44.388Z,100.00
2023-03-08T20:37:48.966Z,100.00
2023-03-08T20:42:51.807Z,100.00
2023-03-08T20:47:57.420Z,100.00
2023-03-08T20:53:01.733Z,100.00
2023-03-08T20:58:05.354Z,100.00
2023-03-08T21:03:08.224Z,100.00
2023-03-08T21:08:12.515Z,100.00
2023-03-08T21:13:15.454Z,100.00
2023-03-08T21:18:18.380Z,100.00
2023-03-08T21:23:23.217Z,100.00
2023-03-08T21:28:26.087Z,100.00
2023-03-08T21:33:29.147Z,100.00
2023-03-08T21:38:33.402Z,100.00
2023-03-08T21:43:36.286Z,100.00
2023-03-08T21:48:39.219Z,100.00
2023-03-08T21:53:44.420Z,100.00
2023-03-08T21:58:47.358Z,100.00
2023-03-08T22:03:50.451Z,100.00
2023-03-08T22:08:55.023Z,99.63
2023-03-08T22:13:59.895Z,99.86
2023-03-08T22:19:03.408Z,100.00
2023-03-08T22:24:08.192Z,100.00
2023-03-08T22:29:11.121Z,99.79
2023-03-08T22:34:13.984Z,100.00
2023-03-08T22:39:18.275Z,100.00
2023-03-08T22:44:21.917Z,100.00
2023-03-08T22:49:24.824Z,100.00
2023-03-08T22:54:29.079Z,100.00
2023-03-08T22:59:31.999Z,100.00
2023-03-08T23:04:35.015Z,100.00
2023-03-08T23:09:39.354Z,100.00
2023-03-08T23:14:44.327Z,100.00
2023-03-08T23:19:50.287Z,100.00
2023-03-08T23:24:54.567Z,100.00
2023-03-08T23:29:57.511Z,100.00
2023-03-08T23:35:00.526Z,100.00
2023-03-08T23:40:05.409Z,100.00
2023-03-08T23:45:10.118Z,100.00
2023-03-08T23:50:13.497Z,100.00
2023-03-08T23:55:17.809Z,100.00
